Time;durP1;ratioP1;P1;durP2;ratioP2;P2;SDS_P1;SDS_P2;PMS_P1;PMS_P2;Temp;Humidity;BMP_temperature;BMP_pressure;BME280_temperature;BME280_humidity;BME280_pressure;Samples;Min_cycle;Max_cycle;Signal;HPM_P1;HPM_P2
2021/12/23 00:02:06;;;;;;;44.45;25.67;;;-1.80;99.90;;;;;;5077562;28;20213;-87
2021/12/23 00:04:33;;;;;;;47.33;26.88;;;-1.70;99.90;;;;;;5083534;28;20224;-86
2021/12/23 00:07:00;;;;;;;40.58;26.13;;;-1.80;99.90;;;;;;5083738;28;20193;-87
2021/12/23 00:09:47;;;;;;;39.63;24.85;;;-1.80;99.90;;;;;;5079176;28;20200;-86
2021/12/23 00:12:15;;;;;;;51.78;27.20;;;-1.80;99.90;;;;;;5084225;28;20197;-86
2021/12/23 00:14:42;;;;;;;43.97;27.13;;;-1.80;99.90;;;;;;5077589;28;20247;-87
2021/12/23 00:17:21;;;;;;;50.92;26.73;;;-1.80;99.90;;;;;;5077173;28;20228;-85
2021/12/23 00:19:59;;;;;;;45.70;25.52;;;-1.80;99.90;;;;;;5077657;28;20614;-86
2021/12/23 00:25:11;;;;;;;48.25;26.17;;;-1.80;99.90;;;;;;5076731;28;20215;-85
2021/12/23 00:27:39;;;;;;;44.42;25.60;;;-1.80;99.90;;;;;;5077367;28;20228;-87
2021/12/23 00:30:07;;;;;;;42.70;24.52;;;-1.80;99.90;;;;;;5078574;28;20189;-86
2021/12/23 00:32:34;;;;;;;40.28;26.27;;;-1.90;99.90;;;;;;5076990;28;20231;-85
2021/12/23 00:35:01;;;;;;;41.30;23.30;;;-1.90;99.90;;;;;;5062544;28;20220;-86
2021/12/23 00:37:35;;;;;;;46.33;24.45;;;-1.90;99.90;;;;;;5077566;28;20208;-87
2021/12/23 00:40:02;;;;;;;45.60;26.45;;;-1.90;99.90;;;;;;5061433;28;20253;-86
2021/12/23 00:42:31;;;;;;;48.95;26.50;;;-1.90;99.90;;;;;;5078126;28;20225;-87
2021/12/23 00:44:59;;;;;;;47.35;28.17;;;-1.90;99.90;;;;;;5077208;28;20248;-86
2021/12/23 00:47:26;;;;;;;43.42;26.30;;;-1.90;99.90;;;;;;5076809;28;20209;-86
2021/12/23 00:49:53;;;;;;;47.03;27.33;;;-1.90;99.90;;;;;;5077185;28;20204;-87
2021/12/23 00:52:27;;;;;;;47.95;26.77;;;-2.00;99.90;;;;;;5077594;28;20216;-86
2021/12/23 00:54:53;;;;;;;50.33;29.30;;;-2.00;99.90;;;;;;5077743;28;20685;-86
2021/12/23 00:57:26;;;;;;;49.53;25.48;;;-2.00;99.90;;;;;;5075060;28;20205;-86
2021/12/23 00:59:53;;;;;;;43.08;23.02;;;-1.90;99.90;;;;;;5077919;28;20285;-87
2021/12/23 01:02:24;;;;;;;43.47;24.70;;;-1.90;99.90;;;;;;5090172;28;20209;-87
2021/12/23 01:04:51;;;;;;;43.10;25.25;;;-1.90;99.90;;;;;;5090383;28;20209;-86
2021/12/23 01:07:18;;;;;;;48.25;30.60;;;-1.90;99.90;;;;;;5091323;28;20193;-87
2021/12/23 01:09:44;;;;;;;55.25;28.33;;;-1.90;99.90;;;;;;5081156;28;20196;-85
2021/12/23 01:12:13;;;;;;;44.30;26.02;;;-2.00;99.90;;;;;;5080619;28;20196;-86
2021/12/23 01:14:52;;;;;;;50.20;26.83;;;-2.00;99.90;;;;;;5081598;28;20221;-85
2021/12/23 01:17:42;;;;;;;45.47;27.10;;;-2.00;99.90;;;;;;5073212;28;20233;-86
2021/12/23 01:20:12;;;;;;;44.03;26.15;;;-1.90;99.90;;;;;;5077255;28;20217;-85
2021/12/23 01:22:40;;;;;;;41.92;27.02;;;-1.90;99.90;;;;;;5082101;28;20284;-85
2021/12/23 01:25:08;;;;;;;39.30;23.70;;;-1.90;99.90;;;;;;5085995;28;20217;-86
2021/12/23 01:27:35;;;;;;;46.28;27.10;;;-1.90;99.90;;;;;;5075269;28;20197;-86
2021/12/23 01:30:02;;;;;;;51.40;27.48;;;-1.90;99.90;;;;;;5084547;28;20610;-85
2021/12/23 01:32:29;;;;;;;48.80;27.88;;;-1.90;99.90;;;;;;5091279;28;20232;-86
2021/12/23 01:34:55;;;;;;;47.97;29.00;;;-1.90;99.90;;;;;;5076790;28;20224;-86
2021/12/23 01:37:23;;;;;;;55.20;25.52;;;-1.90;99.90;;;;;;5075969;28;20201;-85
2021/12/23 01:39:50;;;;;;;46.70;25.05;;;-1.90;99.90;;;;;;5077440;28;20202;-85
2021/12/23 01:42:17;;;;;;;43.65;27.17;;;-1.90;99.90;;;;;;5078271;28;20216;-85
2021/12/23 01:44:44;;;;;;;41.53;25.63;;;-1.90;99.90;;;;;;5074144;28;20689;-85
2021/12/23 01:47:10;;;;;;;37.70;22.60;;;-1.90;99.90;;;;;;5073523;28;20212;-84
2021/12/23 01:49:37;;;;;;;40.58;25.25;;;-1.90;99.90;;;;;;5074345;28;20310;-85
2021/12/23 01:52:05;;;;;;;41.40;25.08;;;-1.80;99.90;;;;;;5076949;28;20193;-85
2021/12/23 01:54:33;;;;;;;48.58;26.00;;;-1.80;99.90;;;;;;5074244;28;20213;-86
2021/12/23 01:57:00;;;;;;;36.83;23.05;;;-1.90;99.90;;;;;;5073497;28;20322;-86
2021/12/23 01:59:27;;;;;;;45.20;24.35;;;-1.80;99.90;;;;;;5073755;28;20205;-84
2021/12/23 02:01:53;;;;;;;38.88;23.23;;;-1.80;99.90;;;;;;5074511;28;20232;-85
2021/12/23 02:04:20;;;;;;;44.15;25.52;;;-1.80;99.90;;;;;;5073364;28;20228;-85
2021/12/23 02:06:47;;;;;;;42.75;24.50;;;-1.80;99.90;;;;;;5072607;28;20198;-84
2021/12/23 02:09:14;;;;;;;44.50;24.55;;;-1.80;99.90;;;;;;5074499;28;20197;-85
2021/12/23 02:11:42;;;;;;;40.40;23.00;;;-1.80;99.90;;;;;;5081443;28;20193;-85
2021/12/23 02:14:09;;;;;;;37.50;24.63;;;-1.80;99.90;;;;;;5081896;28;20399;-85
2021/12/23 02:16:35;;;;;;;47.33;25.77;;;-1.80;99.90;;;;;;5077199;28;20194;-85
2021/12/23 02:19:04;;;;;;;39.10;24.08;;;-1.80;99.90;;;;;;5079476;28;20189;-85
2021/12/23 02:21:32;;;;;;;38.58;20.95;;;-1.80;99.90;;;;;;5080728;28;20597;-84
2021/12/23 02:23:59;;;;;;;37.40;22.30;;;-1.80;99.90;;;;;;5079475;28;20213;-85
2021/12/23 02:26:26;;;;;;;40.35;23.48;;;-1.80;99.90;;;;;;5080145;28;20194;-85
2021/12/23 02:28:53;;;;;;;39.00;23.98;;;-1.80;99.90;;;;;;5084791;28;20210;-84
2021/12/23 02:31:19;;;;;;;52.95;25.80;;;-1.90;99.90;;;;;;5078036;28;20209;-85
2021/12/23 02:33:46;;;;;;;40.47;24.27;;;-1.90;99.90;;;;;;5078148;28;20618;-87
2021/12/23 02:36:13;;;;;;;35.22;22.73;;;-1.90;99.90;;;;;;5077300;28;20254;-86
2021/12/23 02:38:41;;;;;;;40.17;25.77;;;-1.90;99.90;;;;;;5076608;28;20197;-85
2021/12/23 02:41:08;;;;;;;40.97;24.40;;;-1.90;99.90;;;;;;5077565;28;20193;-83
2021/12/23 02:43:36;;;;;;;46.00;26.35;;;-1.80;99.90;;;;;;5085753;28;20201;-86
2021/12/23 02:46:03;;;;;;;48.83;25.70;;;-1.90;99.90;;;;;;5094499;28;20193;-86
2021/12/23 02:48:35;;;;;;;42.83;25.98;;;-1.80;99.90;;;;;;5091499;28;20206;-87
2021/12/23 02:51:04;;;;;;;41.05;25.23;;;-1.80;99.90;;;;;;5073658;28;20209;-84
2021/12/23 02:53:31;;;;;;;38.28;25.05;;;-1.80;99.90;;;;;;5074315;28;20559;-85
2021/12/23 02:56:01;;;;;;;45.15;25.83;;;-1.90;99.90;;;;;;5078181;28;20239;-86
2021/12/23 02:58:28;;;;;;;42.05;22.98;;;-1.80;99.90;;;;;;5083312;28;20208;-86
2021/12/23 03:00:58;;;;;;;40.28;26.35;;;-1.90;99.90;;;;;;5083582;28;20208;-86
2021/12/23 03:03:25;;;;;;;38.05;22.48;;;-1.80;99.90;;;;;;5078846;28;20227;-85
2021/12/23 03:05:54;;;;;;;45.85;25.10;;;-1.90;99.90;;;;;;5075431;28;20298;-85
2021/12/23 03:08:29;;;;;;;42.10;24.95;;;-1.90;99.90;;;;;;5075521;28;20205;-86
2021/12/23 03:10:55;;;;;;;44.67;23.48;;;-1.90;99.90;;;;;;5075896;28;20200;-86
2021/12/23 03:13:24;;;;;;;43.63;26.67;;;-1.90;99.90;;;;;;5090549;28;20194;-86
2021/12/23 03:15:51;;;;;;;40.05;24.55;;;-1.80;99.90;;;;;;5088176;28;20312;-85
2021/12/23 03:18:18;;;;;;;40.17;22.65;;;-1.80;99.90;;;;;;5080815;28;20243;-86
2021/12/23 03:20:44;;;;;;;39.15;24.13;;;-1.80;99.90;;;;;;5076782;28;20655;-85
2021/12/23 03:23:11;;;;;;;37.13;23.95;;;-1.80;99.90;;;;;;5068137;28;20221;-86
2021/12/23 03:25:38;;;;;;;41.92;21.98;;;-1.80;99.90;;;;;;5077580;28;20220;-85
2021/12/23 03:28:05;;;;;;;37.70;24.50;;;-1.80;99.90;;;;;;5075792;28;20198;-85
2021/12/23 03:30:33;;;;;;;41.35;24.60;;;-1.80;99.90;;;;;;5075871;28;20227;-85
2021/12/23 03:33:01;;;;;;;45.17;24.42;;;-1.80;99.90;;;;;;5077607;28;20220;-84
2021/12/23 03:35:28;;;;;;;43.17;22.58;;;-1.80;99.90;;;;;;5078207;28;20688;-85
2021/12/23 03:37:55;;;;;;;39.40;22.33;;;-1.80;99.90;;;;;;5078652;28;20212;-85
2021/12/23 03:40:22;;;;;;;41.75;23.35;;;-1.80;99.90;;;;;;5076783;28;20205;-85
2021/12/23 03:42:48;;;;;;;43.00;23.90;;;-1.80;99.90;;;;;;5075620;28;20228;-85
2021/12/23 03:45:15;;;;;;;42.17;24.55;;;-1.80;99.90;;;;;;5074974;28;20213;-85
2021/12/23 03:47:48;;;;;;;35.85;23.40;;;-1.80;99.90;;;;;;5074345;28;20198;-85
2021/12/23 03:50:17;;;;;;;42.83;23.92;;;-1.90;99.90;;;;;;5075661;28;20778;-86
2021/12/23 03:52:44;;;;;;;37.97;24.23;;;-1.90;99.90;;;;;;5076350;28;20533;-84
2021/12/23 03:55:11;;;;;;;31.75;20.23;;;-1.80;99.90;;;;;;5075504;28;20236;-85
2021/12/23 03:57:38;;;;;;;36.58;22.10;;;-1.80;99.90;;;;;;5076368;28;20189;-85
2021/12/23 04:00:08;;;;;;;37.40;23.25;;;-1.90;99.90;;;;;;5075109;28;20200;-86
2021/12/23 04:02:34;;;;;;;36.60;23.10;;;-1.90;99.90;;;;;;5074295;28;20248;-86
2021/12/23 04:05:03;;;;;;;40.45;23.15;;;-1.90;99.90;;;;;;5076494;28;20224;-86
2021/12/23 04:07:30;;;;;;;36.05;21.67;;;-1.90;99.90;;;;;;5077971;28;20205;-86
2021/12/23 04:09:57;;;;;;;35.60;22.30;;;-1.80;99.90;;;;;;5073829;28;20190;-86
2021/12/23 04:12:23;;;;;;;39.30;22.25;;;-1.70;99.90;;;;;;5074243;28;20204;-85
2021/12/23 04:14:50;;;;;;;41.50;22.75;;;-1.70;99.90;;;;;;5077109;28;20216;-86
2021/12/23 04:17:17;;;;;;;43.05;23.65;;;-1.70;99.90;;;;;;5077409;28;20200;-86
2021/12/23 04:19:46;;;;;;;32.05;19.50;;;-1.60;99.90;;;;;;5074190;28;20193;-86
2021/12/23 04:22:14;;;;;;;35.13;19.35;;;-1.60;99.90;;;;;;5081986;28;20221;-86
2021/12/23 04:24:41;;;;;;;38.25;22.95;;;-1.60;99.90;;;;;;5067307;28;20226;-86
2021/12/23 04:27:08;;;;;;;38.97;22.35;;;-1.50;99.90;;;;;;5075831;28;20178;-86
2021/12/23 04:29:35;;;;;;;37.33;20.35;;;-1.50;99.90;;;;;;5077980;28;20190;-86
2021/12/23 04:32:04;;;;;;;36.75;20.35;;;-1.50;99.90;;;;;;5084994;28;20170;-85
2021/12/23 04:34:31;;;;;;;32.05;18.67;;;-1.50;99.90;;;;;;5066473;28;20220;-86
2021/12/23 04:36:58;;;;;;;33.72;20.67;;;-1.40;99.90;;;;;;5078126;28;20208;-86
2021/12/23 04:39:26;;;;;;;38.40;20.92;;;-1.30;99.90;;;;;;5066924;28;20197;-86
2021/12/23 04:41:53;;;;;;;32.85;21.00;;;-1.30;99.90;;;;;;5066001;28;20194;-86
2021/12/23 04:44:19;;;;;;;36.65;20.05;;;-1.30;99.90;;;;;;5064347;28;20697;-86
2021/12/23 04:46:46;;;;;;;37.08;20.80;;;-1.30;99.90;;;;;;5066587;28;20194;-86
2021/12/23 04:49:13;;;;;;;33.42;20.63;;;-1.30;99.90;;;;;;5069008;28;20216;-86
2021/12/23 04:51:39;;;;;;;38.53;22.23;;;-1.20;99.90;;;;;;5062701;28;20193;-86
2021/12/23 04:54:06;;;;;;;33.35;19.40;;;-1.20;99.90;;;;;;5070622;28;20301;-85
2021/12/23 04:56:34;;;;;;;28.10;17.92;;;-1.20;99.90;;;;;;5077482;28;20224;-86
2021/12/23 04:59:01;;;;;;;33.38;20.85;;;-1.20;99.90;;;;;;5071732;28;20252;-86
2021/12/23 05:01:30;;;;;;;33.70;18.08;;;-1.20;99.90;;;;;;5064703;28;20197;-85
2021/12/23 05:03:57;;;;;;;32.10;20.52;;;-1.20;99.90;;;;;;5063082;28;20214;-85
2021/12/23 05:06:24;;;;;;;35.25;18.58;;;-1.20;99.90;;;;;;5062072;28;20289;-86
2021/12/23 05:08:51;;;;;;;29.55;17.52;;;-1.10;99.90;;;;;;5067112;28;20198;-86
2021/12/23 05:11:20;;;;;;;35.95;20.77;;;-1.10;99.90;;;;;;5062465;28;20207;-86
2021/12/23 05:13:48;;;;;;;34.65;19.25;;;-1.10;99.90;;;;;;5065075;28;20225;-86
2021/12/23 05:16:15;;;;;;;32.22;20.02;;;-1.10;99.90;;;;;;5063742;28;20220;-85
2021/12/23 05:18:42;;;;;;;30.08;18.70;;;-1.00;99.90;;;;;;5065931;28;20193;-86
2021/12/23 05:21:10;;;;;;;31.25;18.23;;;-1.00;99.90;;;;;;5067000;28;20253;-86
2021/12/23 05:23:36;;;;;;;31.67;19.00;;;-1.00;99.90;;;;;;5065542;28;20212;-86
2021/12/23 05:26:05;;;;;;;32.15;19.25;;;-1.10;99.90;;;;;;5060234;28;20209;-86
2021/12/23 05:28:32;;;;;;;32.80;18.92;;;-1.10;99.90;;;;;;5065379;28;20198;-86
2021/12/23 05:31:00;;;;;;;33.70;19.60;;;-1.20;99.90;;;;;;5065736;28;20241;-86
2021/12/23 05:33:27;;;;;;;33.35;17.75;;;-1.20;99.90;;;;;;5074608;28;20208;-86
2021/12/23 05:35:55;;;;;;;37.53;20.52;;;-1.20;99.90;;;;;;5066553;28;20214;-85
2021/12/23 05:38:21;;;;;;;31.50;18.33;;;-1.20;99.90;;;;;;5066746;28;20200;-86
2021/12/23 05:40:48;;;;;;;30.58;17.83;;;-1.20;99.90;;;;;;5063709;28;20194;-86
2021/12/23 05:43:16;;;;;;;32.47;19.80;;;-1.20;99.90;;;;;;5062858;28;20232;-86
2021/12/23 05:45:43;;;;;;;40.42;20.95;;;-1.20;99.90;;;;;;5063210;28;20225;-86
2021/12/23 05:55:44;;;;;;;33.03;18.95;;;-1.20;99.90;;;;;;5024734;28;20221;-85
2021/12/23 06:02:08;;;;;;;;;;;;;;;;;;;;;
2021/12/23 06:07:42;;;;;;;32.83;19.42;;;-1.30;99.90;;;;;;5022405;28;20206;-85
2021/12/23 06:13:32;;;;;;;34.58;20.75;;;-1.30;99.90;;;;;;4960999;28;20647;-84
2021/12/23 06:16:24;;;;;;;30.08;19.40;;;-1.30;99.90;;;;;;5023585;28;20209;-84
2021/12/23 06:18:59;;;;;;;36.80;21.83;;;-1.30;99.90;;;;;;5024626;28;20334;-85
2021/12/23 06:24:56;;;;;;;31.98;19.50;;;-1.40;99.90;;;;;;5043747;28;20294;-86
2021/12/23 06:27:33;;;;;;;35.20;19.77;;;-1.40;99.90;;;;;;4993545;28;20254;-85
2021/12/23 06:30:17;;;;;;;36.20;19.48;;;-1.40;99.90;;;;;;5023996;28;20253;-84
2021/12/23 06:32:54;;;;;;;35.97;20.83;;;-1.40;99.90;;;;;;5023050;28;20195;-84
2021/12/23 06:35:50;;;;;;;29.92;19.35;;;-1.40;99.90;;;;;;5024312;28;20238;-84
2021/12/23 06:41:31;;;;;;;37.35;20.50;;;-1.40;99.90;;;;;;5026339;28;20203;-84
2021/12/23 06:44:18;;;;;;;42.58;22.48;;;-1.40;99.90;;;;;;5023552;28;20614;-85
2021/12/23 06:46:57;;;;;;;35.28;20.02;;;-1.40;99.90;;;;;;5043575;28;20202;-84
2021/12/23 06:49:47;;;;;;;34.75;21.30;;;-1.30;99.90;;;;;;5036191;28;20686;-85
2021/12/23 06:52:15;;;;;;;35.10;21.17;;;-1.30;99.90;;;;;;5020082;28;20228;-84
2021/12/23 06:55:08;;;;;;;39.17;21.38;;;-1.20;99.90;;;;;;5016914;28;20289;-85
2021/12/23 06:58:22;;;;;;;33.28;20.85;;;-1.20;99.90;;;;;;5016365;28;20730;-84
2021/12/23 07:01:09;;;;;;;35.35;20.05;;;-1.20;99.90;;;;;;4917742;29;20203;-85
2021/12/23 07:04:06;;;;;;;33.65;20.73;;;-1.20;99.90;;;;;;4927221;29;20226;-85
2021/12/23 07:07:08;;;;;;;33.45;19.25;;;-1.30;99.90;;;;;;5015850;28;20241;-85
2021/12/23 07:09:54;;;;;;;35.92;20.77;;;-1.30;99.90;;;;;;5015683;28;20223;-85
2021/12/23 07:15:54;;;;;;;32.28;19.38;;;-1.30;99.90;;;;;;5021964;28;20275;-84
2021/12/23 07:18:48;;;;;;;39.00;20.33;;;-1.20;99.90;;;;;;5007312;28;20227;-84
2021/12/23 07:24:14;;;;;;;32.67;20.92;;;-1.10;99.90;;;;;;5023929;28;20254;-85
2021/12/23 07:30:05;;;;;;;32.42;20.40;;;-1.20;99.90;;;;;;5022671;28;20242;-84
2021/12/23 07:32:44;;;;;;;33.10;21.13;;;-1.30;99.90;;;;;;5022175;28;20380;-87
2021/12/23 07:35:27;;;;;;;46.92;23.70;;;-1.40;99.90;;;;;;5022964;28;20272;-85
2021/12/23 07:38:04;;;;;;;33.95;22.52;;;-1.50;99.90;;;;;;5036823;28;20211;-85
2021/12/23 07:40:44;;;;;;;41.67;21.42;;;-1.40;99.90;;;;;;5036779;28;20203;-85
2021/12/23 07:43:41;;;;;;;33.97;22.00;;;-1.40;99.90;;;;;;5028191;28;20300;-85
2021/12/23 07:46:28;;;;;;;37.85;19.45;;;-1.40;99.90;;;;;;5016577;28;20245;-85
2021/12/23 07:49:15;;;;;;;37.95;21.05;;;-1.40;99.90;;;;;;5015118;28;20231;-84
2021/12/23 07:52:22;;;;;;;32.42;22.35;;;-1.40;99.90;;;;;;5014920;28;20210;-85
2021/12/23 07:55:13;;;;;;;31.95;19.58;;;-1.40;99.90;;;;;;4946754;28;20211;-85
2021/12/23 08:00:39;;;;;;;36.65;18.52;;;-1.40;99.90;;;;;;5011880;28;20253;-85
2021/12/23 08:03:09;;;;;;;32.75;20.15;;;-1.40;99.90;;;;;;5014186;28;20219;-85
2021/12/23 08:06:03;;;;;;;34.85;19.13;;;-1.40;99.90;;;;;;5014233;28;20212;-85
2021/12/23 08:12:16;;;;;;;38.00;20.00;;;-1.30;99.90;;;;;;4975066;28;20335;-86
2021/12/23 08:14:52;;;;;;;32.13;20.23;;;-1.30;99.90;;;;;;4988369;28;20332;-84
2021/12/23 08:17:40;;;;;;;38.63;19.70;;;-1.20;99.90;;;;;;5008530;28;20238;-86
2021/12/23 08:20:21;;;;;;;36.10;22.20;;;-1.10;99.90;;;;;;5015816;28;20199;-86
2021/12/23 08:26:16;;;;;;;34.22;21.65;;;-0.90;99.90;;;;;;5008414;28;20203;-85
2021/12/23 08:29:05;;;;;;;30.40;15.90;;;-0.80;99.90;;;;;;4998700;28;20219;-84
2021/12/23 08:31:52;;;;;;;;;;;;;;;;;;;;;
2021/12/23 08:37:32;;;;;;;27.35;15.38;;;-0.60;99.90;;;;;;5011650;28;20191;-84
2021/12/23 08:40:16;;;;;;;37.67;21.42;;;-0.60;99.90;;;;;;5015856;28;20238;-85
2021/12/23 08:42:49;;;;;;;44.03;24.45;;;-0.60;99.90;;;;;;5015033;28;20644;-84
2021/12/23 08:45:57;;;;;;;;;;;;;;;;;;;;;
2021/12/23 08:48:44;;;;;;;37.53;22.08;;;-0.40;99.90;;;;;;5014270;28;20246;-86
2021/12/23 08:51:28;;;;;;;40.28;23.42;;;-0.40;99.90;;;;;;5015625;28;20230;-86
2021/12/23 08:54:01;;;;;;;35.90;20.83;;;-0.20;99.90;;;;;;5023312;28;20206;-86
2021/12/23 08:59:36;;;;;;;34.85;21.40;;;0.00;99.90;;;;;;5033013;28;20233;-85
2021/12/23 09:02:29;;;;;;;40.92;23.40;;;0.10;99.90;;;;;;5025056;28;20211;-86
2021/12/23 09:08:11;;;;;;;34.33;22.25;;;0.30;99.90;;;;;;4955300;28;20243;-85
2021/12/23 09:10:47;;;;;;;37.95;23.20;;;0.40;99.90;;;;;;5008255;28;20203;-84
2021/12/23 09:13:34;;;;;;;31.80;20.40;;;0.50;99.90;;;;;;5013479;28;20195;-85
2021/12/23 09:16:26;;;;;;;35.00;17.48;;;0.60;99.90;;;;;;5013914;28;20207;-84
2021/12/23 09:19:22;;;;;;;36.65;18.95;;;0.70;99.90;;;;;;5014181;28;20223;-85
2021/12/23 09:22:09;;;;;;;32.65;20.10;;;0.70;99.90;;;;;;5013254;28;20210;-85
2021/12/23 09:25:08;;;;;;;33.88;21.27;;;0.60;99.90;;;;;;5013503;28;20305;-84
2021/12/23 09:28:04;;;;;;;34.03;20.85;;;0.60;99.90;;;;;;5014795;28;20213;-85
2021/12/23 09:33:36;;;;;;;39.25;21.05;;;0.60;99.90;;;;;;5016109;28;20294;-85
2021/12/23 09:36:47;;;;;;;36.25;21.55;;;0.70;99.90;;;;;;5015048;28;20282;-85
2021/12/23 09:42:18;;;;;;;32.40;19.77;;;0.80;99.90;;;;;;5014890;28;20291;-85
2021/12/23 09:51:08;;;;;;;32.42;21.10;;;0.90;99.90;;;;;;5012764;28;20218;-86
2021/12/23 09:57:15;;;;;;;35.22;20.40;;;0.90;99.90;;;;;;5011274;28;20258;-85
2021/12/23 10:00:16;;;;;;;39.22;21.80;;;0.90;99.90;;;;;;5014621;28;20219;-84
2021/12/23 10:05:56;;;;;;;34.05;21.55;;;1.10;99.90;;;;;;4973420;29;20225;-87
2021/12/23 10:27:26;;;;;;;36.80;21.38;;;1.90;99.90;;;;;;5011998;28;20231;-83
2021/12/23 10:38:08;;;;;;;34.20;19.38;;;1.90;99.90;;;;;;5015500;28;20225;-83
2021/12/23 10:40:37;;;;;;;37.97;22.10;;;1.90;99.90;;;;;;5018900;28;20207;-83
2021/12/23 10:43:04;;;;;;;29.85;19.85;;;2.00;99.90;;;;;;5018798;28;20196;-83
2021/12/23 10:45:39;;;;;;;35.83;21.40;;;1.90;99.90;;;;;;5016966;28;20269;-84
2021/12/23 10:48:14;;;;;;;29.98;18.65;;;1.90;99.90;;;;;;5018061;28;20226;-84
2021/12/23 10:50:47;;;;;;;31.98;20.83;;;1.90;99.90;;;;;;5021391;28;20211;-84
2021/12/23 10:53:28;;;;;;;32.88;21.20;;;1.90;99.90;;;;;;5039994;28;20184;-83
2021/12/23 10:59:12;;;;;;;35.83;21.30;;;2.10;99.90;;;;;;5023490;28;20226;-83
2021/12/23 11:02:14;;;;;;;34.10;19.55;;;2.20;99.90;;;;;;5026957;28;20633;-84
2021/12/23 11:05:06;;;;;;;38.00;19.42;;;2.30;99.90;;;;;;5018025;28;20223;-84
2021/12/23 11:07:51;;;;;;;36.78;19.27;;;2.50;99.90;;;;;;5017813;28;20250;-84
2021/12/23 11:10:35;;;;;;;33.17;19.77;;;2.50;99.90;;;;;;5034050;28;20227;-84
2021/12/23 11:27:33;;;;;;;27.07;19.83;;;3.10;99.90;;;;;;5022964;28;20256;-86
2021/12/23 11:38:33;;;;;;;35.22;20.45;;;3.40;99.90;;;;;;5018330;28;20222;-87
2021/12/23 11:41:06;;;;;;;30.20;20.13;;;3.60;99.90;;;;;;5019647;28;20207;-85
2021/12/23 11:46:29;;;;;;;35.70;18.43;;;3.80;99.90;;;;;;5001662;28;20280;-86
2021/12/23 11:49:01;;;;;;;32.10;18.70;;;3.90;99.90;;;;;;5016028;28;21004;-85
2021/12/23 11:51:33;;;;;;;41.77;20.63;;;4.00;99.90;;;;;;5016303;28;20448;-86
2021/12/23 11:54:08;;;;;;;31.50;20.53;;;4.20;99.90;;;;;;5016603;28;20530;-86
2021/12/23 11:56:43;;;;;;;29.47;19.77;;;4.30;99.90;;;;;;5026978;28;20443;-85
2021/12/23 11:59:13;;;;;;;28.93;21.20;;;4.50;99.80;;;;;;5032309;28;21007;-85
2021/12/23 12:01:44;;;;;;;30.87;19.93;;;4.60;99.70;;;;;;5015044;28;20483;-85
2021/12/23 12:04:14;;;;;;;39.57;21.63;;;4.60;99.50;;;;;;5017762;28;20505;-84
2021/12/23 12:06:47;;;;;;;32.13;19.60;;;4.60;99.30;;;;;;5016097;28;20751;-85
2021/12/23 12:09:20;;;;;;;26.63;20.90;;;4.60;99.30;;;;;;5016149;28;20501;-85
2021/12/23 12:12:06;;;;;;;29.07;19.97;;;4.60;99.40;;;;;;5008330;28;20569;-85
2021/12/23 12:14:44;;;;;;;33.90;21.10;;;4.70;99.30;;;;;;5015346;28;20454;-85
2021/12/23 12:17:42;;;;;;;25.57;17.73;;;4.70;98.90;;;;;;5014877;28;20453;-84
2021/12/23 12:20:21;;;;;;;27.50;19.70;;;4.70;98.90;;;;;;5015632;28;20462;-84
2021/12/23 12:22:58;;;;;;;30.17;20.63;;;4.70;99.00;;;;;;5015223;28;21091;-85
2021/12/23 12:25:58;;;;;;;30.93;20.93;;;4.70;98.80;;;;;;5015189;28;20476;-85
2021/12/23 12:28:32;;;;;;;30.70;21.40;;;4.70;98.70;;;;;;5013099;28;20707;-84
2021/12/23 12:31:02;;;;;;;36.50;22.23;;;4.70;98.70;;;;;;5013304;28;20457;-85
2021/12/23 12:33:52;;;;;;;31.17;21.40;;;4.80;98.90;;;;;;5014466;28;20958;-85
2021/12/23 12:36:23;;;;;;;32.63;22.10;;;4.80;98.90;;;;;;5012884;28;20467;-84
2021/12/23 12:45:25;;;;;;;31.97;21.20;;;4.90;98.70;;;;;;5022658;28;20473;-84
2021/12/23 12:47:56;;;;;;;32.17;21.40;;;4.60;98.60;;;;;;5039897;28;20468;-83
2021/12/23 12:50:28;;;;;;;33.43;22.97;;;4.50;98.90;;;;;;5033761;28;20452;-82
2021/12/23 12:53:00;;;;;;;34.87;20.90;;;4.40;99.20;;;;;;5028296;28;20459;-82
2021/12/23 12:55:28;;;;;;;28.33;20.50;;;4.40;99.40;;;;;;5030558;28;21060;-82
2021/12/23 12:57:57;;;;;;;30.67;21.97;;;4.30;99.60;;;;;;5034106;28;20464;-84
2021/12/23 13:00:31;;;;;;;34.80;21.13;;;4.30;99.70;;;;;;5035396;28;20494;-83
2021/12/23 13:03:01;;;;;;;34.73;24.00;;;4.30;99.80;;;;;;5032538;28;20447;-83
2021/12/23 13:05:34;;;;;;;31.17;22.10;;;4.30;99.90;;;;;;5038235;28;20504;-84
2021/12/23 13:08:14;;;;;;;34.07;22.60;;;4.30;99.90;;;;;;5048447;28;20471;-83
2021/12/23 13:10:46;;;;;;;34.77;22.80;;;4.30;99.90;;;;;;5034045;28;20943;-88
2021/12/23 13:13:24;;;;;;;33.50;21.80;;;4.30;99.90;;;;;;5036350;28;20452;-86
2021/12/23 13:15:57;;;;;;;32.93;22.50;;;4.30;99.90;;;;;;5032836;28;20458;-83
2021/12/23 13:18:25;;;;;;;35.53;21.33;;;4.40;99.90;;;;;;5031011;28;20491;-82
2021/12/23 13:20:54;;;;;;;26.90;19.80;;;4.50;99.90;;;;;;5031742;28;20448;-86
2021/12/23 13:23:24;;;;;;;29.00;21.50;;;4.60;99.90;;;;;;5032758;28;20505;-84
2021/12/23 13:25:56;;;;;;;29.87;20.80;;;4.70;99.90;;;;;;5029950;28;20484;-84
2021/12/23 13:28:29;;;;;;;38.37;22.53;;;4.70;99.80;;;;;;5045730;28;20461;-84
2021/12/23 13:30:57;;;;;;;26.03;20.20;;;4.80;99.80;;;;;;5028067;28;20458;-84
2021/12/23 13:33:25;;;;;;;33.97;22.20;;;4.80;99.80;;;;;;5028401;28;20449;-84
2021/12/23 13:35:51;;;;;;;31.63;22.40;;;4.80;99.90;;;;;;5029101;28;20443;-84
2021/12/23 13:38:29;;;;;;;32.63;22.07;;;4.70;99.90;;;;;;5028610;28;20526;-84
2021/12/23 13:40:56;;;;;;;27.47;19.10;;;4.70;99.90;;;;;;5029992;28;20972;-85
2021/12/23 13:43:31;;;;;;;25.33;18.50;;;4.70;99.90;;;;;;5029961;28;20490;-83
2021/12/23 13:46:05;;;;;;;30.13;20.23;;;4.80;99.90;;;;;;5027412;28;20487;-85
2021/12/23 13:48:32;;;;;;;27.00;18.47;;;4.90;99.90;;;;;;5030013;28;20586;-86
2021/12/23 13:50:59;;;;;;;29.47;19.97;;;4.90;99.90;;;;;;5054858;28;20460;-85
2021/12/23 13:53:26;;;;;;;31.70;21.00;;;5.00;99.90;;;;;;5036162;28;20468;-85
2021/12/23 13:55:55;;;;;;;27.90;19.50;;;5.00;99.90;;;;;;5030714;28;20445;-86
2021/12/23 13:58:25;;;;;;;27.73;20.27;;;5.00;99.90;;;;;;5027048;28;20473;-86
2021/12/23 14:00:52;;;;;;;28.50;19.67;;;5.00;99.90;;;;;;5029002;28;20457;-85
2021/12/23 14:03:20;;;;;;;23.60;18.53;;;5.00;99.90;;;;;;5028106;28;20460;-86
2021/12/23 14:05:50;;;;;;;29.70;19.10;;;5.10;99.90;;;;;;5027028;28;20480;-86
2021/12/23 14:08:18;;;;;;;25.93;19.37;;;5.20;99.90;;;;;;5026326;28;20469;-85
2021/12/23 14:10:46;;;;;;;35.77;20.03;;;5.30;99.90;;;;;;5031373;28;20453;-86
2021/12/23 14:13:16;;;;;;;23.10;18.20;;;5.30;99.90;;;;;;5030364;28;20444;-86
2021/12/23 14:15:46;;;;;;;25.73;18.50;;;5.30;99.90;;;;;;5034033;28;20944;-85
2021/12/23 14:18:23;;;;;;;27.30;18.37;;;5.30;99.90;;;;;;5033881;28;20461;-85
2021/12/23 14:23:52;;;;;;;24.00;17.90;;;5.40;99.90;;;;;;5031925;28;20824;-86
2021/12/23 14:26:23;;;;;;;27.50;20.70;;;5.40;99.90;;;;;;5030929;28;21022;-86
2021/12/23 14:28:51;;;;;;;24.80;17.43;;;5.50;99.90;;;;;;5032994;28;20480;-86
2021/12/23 14:31:21;;;;;;;25.27;17.33;;;5.50;99.80;;;;;;5049083;28;20445;-86
2021/12/23 14:33:50;;;;;;;23.87;16.80;;;5.60;99.90;;;;;;5043943;28;20503;-86
2021/12/23 14:36:20;;;;;;;42.33;20.40;;;5.60;99.90;;;;;;5040975;28;20445;-86
2021/12/23 14:38:55;;;;;;;27.97;16.50;;;5.60;99.80;;;;;;5032390;28;21024;-86
2021/12/23 14:41:23;;;;;;;27.97;17.80;;;5.60;99.90;;;;;;5031425;28;20440;-86
2021/12/23 14:44:13;;;;;;;22.97;16.27;;;5.70;99.90;;;;;;5033087;28;20941;-87
2021/12/23 14:46:46;;;;;;;19.23;15.73;;;5.70;99.90;;;;;;5028185;28;20884;-86
2021/12/23 14:49:29;;;;;;;28.20;18.80;;;5.80;99.80;;;;;;5033471;28;20501;-86
2021/12/23 14:52:12;;;;;;;24.40;17.67;;;5.80;99.80;;;;;;5030451;28;20446;-86
2021/12/23 14:54:48;;;;;;;23.20;16.93;;;5.90;99.60;;;;;;5030482;28;21056;-86
2021/12/23 14:57:18;;;;;;;23.97;16.70;;;6.00;99.40;;;;;;5032858;28;20453;-86
2021/12/23 14:59:47;;;;;;;25.00;16.40;;;6.10;99.50;;;;;;5032468;28;20466;-86
2021/12/23 15:02:18;;;;;;;18.73;15.30;;;6.10;99.20;;;;;;5030541;28;21023;-87
2021/12/23 15:05:14;;;;;;;20.50;15.63;;;6.10;99.10;;;;;;5029014;28;20442;-86
2021/12/23 15:07:54;;;;;;;22.90;15.03;;;6.20;99.10;;;;;;4996302;28;20488;-87
2021/12/23 15:10:51;;;;;;;19.03;13.47;;;6.30;99.00;;;;;;5030452;28;20449;-86
2021/12/23 15:13:31;;;;;;;21.80;15.17;;;6.40;98.90;;;;;;5053983;28;20452;-87
2021/12/23 15:16:09;;;;;;;23.83;15.10;;;6.30;98.80;;;;;;5049416;28;20444;-86
2021/12/23 15:18:57;;;;;;;21.30;14.80;;;6.40;98.70;;;;;;5051715;28;20461;-87
2021/12/23 15:21:32;;;;;;;21.87;15.30;;;6.40;98.50;;;;;;5051590;28;20469;-86
2021/12/23 15:24:01;;;;;;;26.00;15.10;;;6.40;98.70;;;;;;5048230;28;20455;-87
2021/12/23 15:26:32;;;;;;;25.53;16.87;;;6.40;98.90;;;;;;5050795;28;20511;-87